Angola, Louisiana
Current Conditions -  °F | °C
As of 9:15 PM on Thursday 27 Nov 2014 (Local Time) from KHZR Reporting Station
Clear Clear  
Wind Chill: 42°   Ceiling: Unl
Heat Index: 42°   Visibility: 10mi
Dew Point: 33°   Wind: 3mph
Humidity: 70%   Direction: 10°N
Pressure: 30.46"   Gusts: NA
Location:  30.95°N, 91.57°W
Report Text: KHZR 280315Z AUTO 01003KT 10SM CLR 06/01 A3046 RMK AO2 T00570007
Loading
Personal Weather Stations






























Interactive Weather Map New forecast layout! Learn more

10-Day Weather Forecast

Advertisements
Track Severe Weather on mobile